KSNL/SNL METAR and TAF weather

Enter ICAO airport designator
Station Type Date Time Source
KSNL METAR 2020/09/22 03:35 UTC NOAA

KSNL 220335Z AUTO 10011G15KT 10SM OVC029 20/17 A3016 RMK AO2 T02030170


Station Type Date Time Source
KSNL Decoded METAR 2020/09/22 03:35 UTC NOAA

Shawnee, Shawnee Municipal Airport, OK, United States (KSNL) 35-21-26N 096-56-34W
Sep 21, 2020 - 11:35 PM EDT / 2020.09.22 0335 UTC
Wind: from the E (100 degrees) at 13 MPH (11 KT) gusting to 17 MPH (15 KT):0
Visibility: 10 mile(s):0
Sky conditions: overcast
Temperature: 68.5 F (20.3 C)
Dew Point: 62.6 F (17.0 C)
Relative Humidity: 81%
Pressure (altimeter): 30.16 in. Hg (1021 hPa)
ob: KSNL 220335Z AUTO 10011G15KT 10SM OVC029 20/17 A3016 RMK AO2 T02030170
cycle: 3

Station Type Date Time Source
KSNL TAF UTC NOAA

Error!

Example: see airport list